createdAt,value
2018-12-21T00:01:26.387Z,89.28
2018-12-21T00:06:43.857Z,88.79
2018-12-21T00:12:01.433Z,88.06
2018-12-21T00:17:19.195Z,88.00
2018-12-21T00:22:36.659Z,87.05
2018-12-21T00:27:54.134Z,88.08
2018-12-21T00:33:17.194Z,87.12
2018-12-21T00:38:40.536Z,87.75
2018-12-21T00:43:59.994Z,87.43
2018-12-21T00:49:17.456Z,86.84
2018-12-21T00:54:34.940Z,87.36
2018-12-21T00:59:52.485Z,88.28
2018-12-21T01:05:10.009Z,87.28
2018-12-21T01:10:27.622Z,86.95
2018-12-21T01:15:45.449Z,85.68
2018-12-21T01:21:02.911Z,86.38
2018-12-21T01:26:20.372Z,85.89
2018-12-21T01:31:37.827Z,85.99
2018-12-21T01:36:55.286Z,84.56
2018-12-21T01:42:12.753Z,85.70
2018-12-21T01:47:30.297Z,84.26
2018-12-21T01:52:47.765Z,85.10
2018-12-21T01:58:05.222Z,84.63
2018-12-21T02:03:22.702Z,84.83
2018-12-21T02:08:40.257Z,85.29
2018-12-21T02:13:57.715Z,85.24
2018-12-21T02:19:15.186Z,85.96
2018-12-21T02:24:32.637Z,86.12
2018-12-21T02:29:50.309Z,85.85
2018-12-21T02:35:07.763Z,85.89
2018-12-21T02:40:25.226Z,85.74
2018-12-21T02:45:42.686Z,86.08
2018-12-21T02:51:00.158Z,86.15
2018-12-21T02:56:17.620Z,85.47
2018-12-21T03:01:35.096Z,85.57
2018-12-21T03:06:52.553Z,85.30
2018-12-21T03:12:10.007Z,84.53
2018-12-21T03:17:27.463Z,84.14
2018-12-21T03:22:44.917Z,85.20
2018-12-21T03:28:02.378Z,85.12
2018-12-21T03:33:19.861Z,84.96
2018-12-21T03:38:37.321Z,85.26
2018-12-21T03:43:54.791Z,87.01
2018-12-21T03:49:12.243Z,87.79
2018-12-21T03:54:29.697Z,89.11
2018-12-21T03:59:47.144Z,90.88
2018-12-21T04:05:05.069Z,92.34
2018-12-21T04:10:22.532Z,93.37
2018-12-21T04:15:39.992Z,93.55
2018-12-21T04:20:57.584Z,92.50
2018-12-21T04:26:15.119Z,91.95
2018-12-21T04:31:32.579Z,90.84
2018-12-21T04:36:50.050Z,90.47
2018-12-21T04:42:07.775Z,90.33
2018-12-21T04:47:25.225Z,91.75
2018-12-21T04:52:43.436Z,93.08
2018-12-21T04:58:01.268Z,93.03
2018-12-21T05:03:18.724Z,93.39
2018-12-21T05:08:36.437Z,93.98
2018-12-21T05:13:53.895Z,94.10
2018-12-21T05:19:11.357Z,94.15
2018-12-21T05:24:28.821Z,94.41
2018-12-21T05:29:46.289Z,94.43
2018-12-21T05:35:04.262Z,94.17
2018-12-21T05:40:21.804Z,94.49
2018-12-21T05:45:39.265Z,94.11
2018-12-21T05:50:56.985Z,94.34
2018-12-21T05:56:14.444Z,94.09
2018-12-21T06:01:31.913Z,94.29
2018-12-21T06:06:49.391Z,94.29
2018-12-21T06:12:06.836Z,94.01
2018-12-21T06:17:24.304Z,94.29
2018-12-21T06:22:41.767Z,94.54
2018-12-21T06:27:59.444Z,94.85
2018-12-21T06:33:16.900Z,94.12
2018-12-21T06:38:34.366Z,94.82
2018-12-21T06:43:51.931Z,94.15
2018-12-21T06:49:09.384Z,94.19
2018-12-21T06:54:26.837Z,93.65
2018-12-21T06:59:44.300Z,94.13
2018-12-21T07:05:01.768Z,94.26
2018-12-21T07:10:19.223Z,94.21
2018-12-21T07:15:36.970Z,94.47
2018-12-21T07:20:54.461Z,94.54
2018-12-21T07:26:11.924Z,94.24
2018-12-21T07:31:29.386Z,94.55
2018-12-21T07:36:46.848Z,94.89
2018-12-21T07:42:04.303Z,94.45
2018-12-21T07:47:21.782Z,94.93
2018-12-21T07:52:39.269Z,95.01
2018-12-21T07:57:58.631Z,94.94
2018-12-21T08:03:16.226Z,95.06
2018-12-21T08:08:33.704Z,94.71
2018-12-21T08:13:51.174Z,95.03
2018-12-21T08:19:08.629Z,94.66
2018-12-21T08:24:26.339Z,94.60
2018-12-21T08:29:43.794Z,94.98
2018-12-21T08:35:01.337Z,95.18
2018-12-21T08:40:18.806Z,95.11
2018-12-21T08:45:36.268Z,95.20
2018-12-21T08:50:53.804Z,95.04
2018-12-21T08:56:11.301Z,95.57
2018-12-21T09:01:29.009Z,95.83
2018-12-21T09:06:46.460Z,95.63
2018-12-21T09:12:04.080Z,96.06
2018-12-21T09:17:21.534Z,96.42
2018-12-21T09:22:38.997Z,96.68
2018-12-21T09:27:56.452Z,96.16
2018-12-21T09:33:13.912Z,95.85
2018-12-21T09:38:31.368Z,96.00
2018-12-21T09:43:48.818Z,95.77
2018-12-21T09:49:06.285Z,96.11
2018-12-21T09:54:23.741Z,96.05
2018-12-21T09:59:41.209Z,96.12
2018-12-21T10:04:58.922Z,96.49
2018-12-21T10:10:16.380Z,96.08
2018-12-21T10:15:33.843Z,96.60
2018-12-21T10:20:51.298Z,96.86
2018-12-21T10:26:08.785Z,96.48
2018-12-21T10:31:26.492Z,96.96
2018-12-21T10:36:44.005Z,97.18
2018-12-21T10:42:01.460Z,97.10
2018-12-21T10:47:18.921Z,97.67
2018-12-21T10:52:36.364Z,97.37
2018-12-21T10:57:53.817Z,97.59
2018-12-21T11:03:11.280Z,97.10
2018-12-21T11:08:28.805Z,96.90
2018-12-21T11:13:46.280Z,97.21
2018-12-21T11:19:03.741Z,97.15
2018-12-21T11:24:21.201Z,97.35
2018-12-21T11:29:38.657Z,97.86
2018-12-21T11:34:56.140Z,98.07
2018-12-21T11:40:13.930Z,98.23
2018-12-21T11:45:31.453Z,97.65
2018-12-21T11:50:48.945Z,97.77
2018-12-21T11:56:06.437Z,97.73
2018-12-21T12:01:23.908Z,96.91
2018-12-21T12:06:41.389Z,96.42
2018-12-21T12:11:58.861Z,95.58
2018-12-21T12:17:16.317Z,95.55
2018-12-21T12:22:33.789Z,95.30
2018-12-21T12:27:51.270Z,95.62
2018-12-21T12:33:08.739Z,94.98
2018-12-21T12:38:26.202Z,94.22
2018-12-21T12:43:43.678Z,94.03
2018-12-21T12:49:01.186Z,92.84
2018-12-21T12:54:18.656Z,93.13
2018-12-21T12:59:36.129Z,94.22
2018-12-21T13:04:53.629Z,93.67
2018-12-21T13:10:11.084Z,94.53
2018-12-21T13:15:28.653Z,93.67
2018-12-21T13:20:46.126Z,93.48
2018-12-21T13:26:03.671Z,91.41
2018-12-21T13:31:21.156Z,92.59
2018-12-21T13:36:38.925Z,92.06
2018-12-21T13:41:56.398Z,91.43
2018-12-21T13:47:13.872Z,91.06
2018-12-21T13:52:31.332Z,89.85
2018-12-21T13:57:48.795Z,89.86
2018-12-21T14:03:06.653Z,87.04
2018-12-21T14:08:24.125Z,83.14
2018-12-21T14:13:41.915Z,81.88
2018-12-21T14:18:59.588Z,81.34
2018-12-21T14:24:17.071Z,80.30
2018-12-21T14:29:34.520Z,80.69
2018-12-21T14:34:51.989Z,79.45
2018-12-21T14:40:09.485Z,77.88
2018-12-21T14:45:26.932Z,77.19
2018-12-21T14:50:44.389Z,76.93
2018-12-21T14:56:01.857Z,76.84
2018-12-21T15:01:19.408Z,77.44
2018-12-21T15:06:36.969Z,79.24
2018-12-21T15:11:54.569Z,78.26
2018-12-21T15:17:12.024Z,75.27
2018-12-21T15:22:29.518Z,75.18
2018-12-21T15:27:46.991Z,74.11
2018-12-21T15:33:04.506Z,74.51
2018-12-21T15:38:21.986Z,74.06
2018-12-21T15:43:39.486Z,74.61
2018-12-21T15:48:56.944Z,76.57
2018-12-21T15:54:14.504Z,75.32
2018-12-21T15:59:32.053Z,76.20
2018-12-21T16:04:49.530Z,76.86
2018-12-21T16:10:09.566Z,77.32
2018-12-21T16:15:27.029Z,76.99
2018-12-21T16:20:44.517Z,76.79
2018-12-21T16:26:03.577Z,74.83
2018-12-21T16:31:21.414Z,75.04
2018-12-21T16:36:38.880Z,73.99
2018-12-21T16:41:56.348Z,73.04
2018-12-21T16:47:13.830Z,71.17
2018-12-21T16:52:31.332Z,72.52
2018-12-21T16:57:49.217Z,73.15
2018-12-21T17:03:15.376Z,74.12
2018-12-21T17:08:26.175Z,76.23
2018-12-21T17:13:43.636Z,77.78
2018-12-21T17:19:01.581Z,81.98
2018-12-21T17:24:19.049Z,83.12
2018-12-21T17:29:36.529Z,83.84
2018-12-21T17:34:55.891Z,83.28
2018-12-21T17:40:13.485Z,83.49
2018-12-21T17:45:30.948Z,82.44
2018-12-21T17:50:48.414Z,82.35
2018-12-21T17:56:05.876Z,84.14
2018-12-21T18:01:23.349Z,84.94
2018-12-21T18:06:41.362Z,83.06
2018-12-21T18:11:59.313Z,81.03
2018-12-21T18:17:16.854Z,78.05
2018-12-21T18:22:34.334Z,77.33
2018-12-21T18:27:51.796Z,77.78
2018-12-21T18:33:10.805Z,76.34
2018-12-21T18:38:28.830Z,75.71
2018-12-21T18:43:47.269Z,75.86
2018-12-21T18:49:04.763Z,74.78
2018-12-21T18:54:22.241Z,75.30
2018-12-21T18:59:39.708Z,74.98
2018-12-21T19:04:57.178Z,74.72
2018-12-21T19:10:14.876Z,74.89
2018-12-21T19:15:32.389Z,75.60
2018-12-21T19:20:49.861Z,75.78
2018-12-21T19:26:07.320Z,76.00
2018-12-21T19:31:25.131Z,76.42
2018-12-21T19:36:42.596Z,75.27
2018-12-21T19:42:00.056Z,75.42
2018-12-21T19:47:17.646Z,74.69
2018-12-21T19:52:35.160Z,73.80
2018-12-21T19:57:53.002Z,73.65
2018-12-21T20:03:10.475Z,74.31
2018-12-21T20:08:28.073Z,73.28
2018-12-21T20:13:45.559Z,73.53
2018-12-21T20:19:03.043Z,73.21
2018-12-21T20:24:23.069Z,73.19
2018-12-21T20:29:40.419Z,73.13
2018-12-21T20:34:57.939Z,72.70
2018-12-21T20:40:15.395Z,72.25
2018-12-21T20:45:32.870Z,72.36
2018-12-21T20:50:50.583Z,72.40
2018-12-21T20:56:08.049Z,73.70
2018-12-21T21:01:25.515Z,74.14
2018-12-21T21:06:43.293Z,74.70
2018-12-21T21:12:00.751Z,75.58
2018-12-21T21:17:18.225Z,74.62
2018-12-21T21:22:35.747Z,75.25
2018-12-21T21:27:53.221Z,75.93
2018-12-21T21:33:10.689Z,75.64
2018-12-21T21:38:28.172Z,75.89
2018-12-21T21:43:45.882Z,76.16
2018-12-21T21:49:03.375Z,76.85
2018-12-21T21:54:21.187Z,77.07
2018-12-21T21:59:38.693Z,77.45
2018-12-21T22:04:56.155Z,77.77
2018-12-21T22:10:13.620Z,78.06
2018-12-21T22:15:31.088Z,78.55
2018-12-21T22:20:48.990Z,78.96
2018-12-21T22:26:06.462Z,78.70
2018-12-21T22:31:24.043Z,79.08
2018-12-21T22:36:41.530Z,79.19
2018-12-21T22:41:59.073Z,78.95
2018-12-21T22:47:16.552Z,78.81
2018-12-21T22:52:34.012Z,78.54
2018-12-21T22:57:56.409Z,79.14
2018-12-21T23:03:10.966Z,79.13
2018-12-21T23:08:28.437Z,79.65
2018-12-21T23:13:45.917Z,79.95
2018-12-21T23:19:03.373Z,79.93
2018-12-21T23:24:20.846Z,80.50
2018-12-21T23:29:38.304Z,80.61
2018-12-21T23:34:55.761Z,81.11
2018-12-21T23:40:15.351Z,80.88
2018-12-21T23:45:32.977Z,81.01
2018-12-21T23:50:50.448Z,80.87
2018-12-21T23:56:11.958Z,81.04
